sensor_id;sensor_type;location;lat;lon;timestamp;P1;durP1;ratioP1;P2;durP2;ratioP2
66212;SDS011;53015;50.046;8.238;2023-08-17T00:00:58;8.00;;;5.13;;
66212;SDS011;53015;50.046;8.238;2023-08-17T00:03:24;6.90;;;5.57;;
66212;SDS011;53015;50.046;8.238;2023-08-17T00:05:49;9.70;;;6.50;;
66212;SDS011;53015;50.046;8.238;2023-08-17T00:08:15;8.35;;;5.80;;
66212;SDS011;53015;50.046;8.238;2023-08-17T00:10:40;9.98;;;6.07;;
66212;SDS011;53015;50.046;8.238;2023-08-17T00:13:07;8.20;;;6.30;;
66212;SDS011;53015;50.046;8.238;2023-08-17T00:15:33;10.70;;;6.55;;
66212;SDS011;53015;50.046;8.238;2023-08-17T00:17:59;9.80;;;7.20;;
66212;SDS011;53015;50.046;8.238;2023-08-17T00:20:24;13.43;;;6.95;;
66212;SDS011;53015;50.046;8.238;2023-08-17T00:22:50;9.77;;;7.30;;
66212;SDS011;53015;50.046;8.238;2023-08-17T00:25:15;9.85;;;7.03;;
66212;SDS011;53015;50.046;8.238;2023-08-17T00:27:41;10.45;;;7.10;;
66212;SDS011;53015;50.046;8.238;2023-08-17T00:30:08;9.35;;;6.97;;
66212;SDS011;53015;50.046;8.238;2023-08-17T00:32:34;16.65;;;8.80;;
66212;SDS011;53015;50.046;8.238;2023-08-17T00:35:00;15.18;;;8.63;;
66212;SDS011;53015;50.046;8.238;2023-08-17T00:37:25;17.45;;;8.75;;
66212;SDS011;53015;50.046;8.238;2023-08-17T00:39:51;11.38;;;8.93;;
66212;SDS011;53015;50.046;8.238;2023-08-17T00:42:16;15.88;;;9.27;;
66212;SDS011;53015;50.046;8.238;2023-08-17T00:44:42;13.95;;;9.30;;
66212;SDS011;53015;50.046;8.238;2023-08-17T00:47:09;14.68;;;9.65;;
66212;SDS011;53015;50.046;8.238;2023-08-17T00:49:35;16.67;;;9.63;;
66212;SDS011;53015;50.046;8.238;2023-08-17T00:52:01;18.73;;;10.55;;
66212;SDS011;53015;50.046;8.238;2023-08-17T00:54:27;20.05;;;10.73;;
66212;SDS011;53015;50.046;8.238;2023-08-17T00:56:54;18.90;;;10.77;;
66212;SDS011;53015;50.046;8.238;2023-08-17T00:59:20;15.02;;;10.27;;
66212;SDS011;53015;50.046;8.238;2023-08-17T01:01:46;18.58;;;10.80;;
66212;SDS011;53015;50.046;8.238;2023-08-17T01:04:13;15.38;;;10.65;;
66212;SDS011;53015;50.046;8.238;2023-08-17T01:06:39;19.25;;;10.65;;
66212;SDS011;53015;50.046;8.238;2023-08-17T01:09:04;16.23;;;10.27;;
66212;SDS011;53015;50.046;8.238;2023-08-17T01:11:32;18.00;;;10.55;;
66212;SDS011;53015;50.046;8.238;2023-08-17T01:14:03;20.23;;;11.70;;
66212;SDS011;53015;50.046;8.238;2023-08-17T01:16:35;19.02;;;11.15;;
66212;SDS011;53015;50.046;8.238;2023-08-17T01:19:05;19.80;;;11.73;;
66212;SDS011;53015;50.046;8.238;2023-08-17T01:21:37;16.38;;;10.93;;
66212;SDS011;53015;50.046;8.238;2023-08-17T01:24:08;17.67;;;11.13;;
66212;SDS011;53015;50.046;8.238;2023-08-17T01:26:34;23.33;;;11.63;;
66212;SDS011;53015;50.046;8.238;2023-08-17T01:28:59;19.88;;;11.82;;
66212;SDS011;53015;50.046;8.238;2023-08-17T01:31:27;19.98;;;11.60;;
66212;SDS011;53015;50.046;8.238;2023-08-17T01:33:58;19.45;;;11.40;;
66212;SDS011;53015;50.046;8.238;2023-08-17T01:36:30;18.08;;;11.40;;
66212;SDS011;53015;50.046;8.238;2023-08-17T01:38:57;23.27;;;11.45;;
66212;SDS011;53015;50.046;8.238;2023-08-17T01:41:26;22.08;;;12.35;;
66212;SDS011;53015;50.046;8.238;2023-08-17T01:43:52;23.77;;;12.82;;
66212;SDS011;53015;50.046;8.238;2023-08-17T01:46:19;18.98;;;11.88;;
66212;SDS011;53015;50.046;8.238;2023-08-17T01:48:44;20.00;;;11.65;;
66212;SDS011;53015;50.046;8.238;2023-08-17T01:51:11;19.77;;;10.98;;
66212;SDS011;53015;50.046;8.238;2023-08-17T01:53:41;14.93;;;10.35;;
66212;SDS011;53015;50.046;8.238;2023-08-17T01:56:07;27.75;;;11.52;;
66212;SDS011;53015;50.046;8.238;2023-08-17T01:58:33;15.25;;;10.60;;
66212;SDS011;53015;50.046;8.238;2023-08-17T02:00:59;16.23;;;10.57;;
66212;SDS011;53015;50.046;8.238;2023-08-17T02:03:24;17.20;;;10.90;;
66212;SDS011;53015;50.046;8.238;2023-08-17T02:05:50;15.63;;;11.15;;
66212;SDS011;53015;50.046;8.238;2023-08-17T02:08:15;16.45;;;10.70;;
66212;SDS011;53015;50.046;8.238;2023-08-17T02:10:41;16.90;;;11.75;;
66212;SDS011;53015;50.046;8.238;2023-08-17T02:13:06;15.77;;;11.57;;
66212;SDS011;53015;50.046;8.238;2023-08-17T02:15:33;19.95;;;13.25;;
66212;SDS011;53015;50.046;8.238;2023-08-17T02:18:03;19.02;;;12.48;;
66212;SDS011;53015;50.046;8.238;2023-08-17T02:20:29;19.13;;;13.02;;
66212;SDS011;53015;50.046;8.238;2023-08-17T02:22:54;19.52;;;13.80;;
66212;SDS011;53015;50.046;8.238;2023-08-17T02:25:20;18.15;;;13.32;;
66212;SDS011;53015;50.046;8.238;2023-08-17T02:27:45;20.17;;;13.68;;
66212;SDS011;53015;50.046;8.238;2023-08-17T02:30:11;21.15;;;13.60;;
66212;SDS011;53015;50.046;8.238;2023-08-17T02:32:39;17.90;;;12.98;;
66212;SDS011;53015;50.046;8.238;2023-08-17T02:35:05;18.42;;;13.40;;
66212;SDS011;53015;50.046;8.238;2023-08-17T02:37:31;19.63;;;12.45;;
66212;SDS011;53015;50.046;8.238;2023-08-17T02:39:57;17.98;;;12.55;;
66212;SDS011;53015;50.046;8.238;2023-08-17T02:42:22;18.58;;;12.27;;
66212;SDS011;53015;50.046;8.238;2023-08-17T02:44:48;21.60;;;12.93;;
66212;SDS011;53015;50.046;8.238;2023-08-17T02:47:13;18.00;;;11.55;;
66212;SDS011;53015;50.046;8.238;2023-08-17T02:49:40;17.00;;;11.40;;
66212;SDS011;53015;50.046;8.238;2023-08-17T02:52:06;11.77;;;8.90;;
66212;SDS011;53015;50.046;8.238;2023-08-17T02:54:31;14.93;;;10.73;;
66212;SDS011;53015;50.046;8.238;2023-08-17T02:56:57;12.85;;;8.50;;
66212;SDS011;53015;50.046;8.238;2023-08-17T02:59:23;12.23;;;7.22;;
66212;SDS011;53015;50.046;8.238;2023-08-17T03:01:48;9.05;;;6.40;;
66212;SDS011;53015;50.046;8.238;2023-08-17T03:04:14;8.98;;;6.30;;
66212;SDS011;53015;50.046;8.238;2023-08-17T03:06:41;13.82;;;5.90;;
66212;SDS011;53015;50.046;8.238;2023-08-17T03:09:06;6.07;;;4.30;;
66212;SDS011;53015;50.046;8.238;2023-08-17T03:11:32;4.88;;;3.47;;
66212;SDS011;53015;50.046;8.238;2023-08-17T03:13:57;3.72;;;2.90;;
66212;SDS011;53015;50.046;8.238;2023-08-17T03:16:23;5.32;;;3.22;;
66212;SDS011;53015;50.046;8.238;2023-08-17T03:18:48;5.00;;;3.45;;
66212;SDS011;53015;50.046;8.238;2023-08-17T03:21:14;5.63;;;3.00;;
66212;SDS011;53015;50.046;8.238;2023-08-17T03:23:41;8.15;;;3.60;;
66212;SDS011;53015;50.046;8.238;2023-08-17T03:26:06;5.65;;;3.35;;
66212;SDS011;53015;50.046;8.238;2023-08-17T03:28:32;6.38;;;3.33;;
66212;SDS011;53015;50.046;8.238;2023-08-17T03:30:58;7.18;;;3.30;;
66212;SDS011;53015;50.046;8.238;2023-08-17T03:33:23;8.25;;;3.15;;
66212;SDS011;53015;50.046;8.238;2023-08-17T03:35:49;2.67;;;2.47;;
66212;SDS011;53015;50.046;8.238;2023-08-17T03:38:14;5.35;;;2.50;;
66212;SDS011;53015;50.046;8.238;2023-08-17T03:40:41;5.00;;;2.33;;
66212;SDS011;53015;50.046;8.238;2023-08-17T03:43:06;3.20;;;1.60;;
66212;SDS011;53015;50.046;8.238;2023-08-17T03:45:32;4.78;;;1.77;;
66212;SDS011;53015;50.046;8.238;2023-08-17T03:47:57;1.50;;;1.40;;
66212;SDS011;53015;50.046;8.238;2023-08-17T03:50:25;1.73;;;1.30;;
66212;SDS011;53015;50.046;8.238;2023-08-17T03:52:50;2.80;;;1.30;;
66212;SDS011;53015;50.046;8.238;2023-08-17T03:55:16;1.30;;;1.20;;
66212;SDS011;53015;50.046;8.238;2023-08-17T03:57:43;1.98;;;1.30;;
66212;SDS011;53015;50.046;8.238;2023-08-17T04:00:09;1.63;;;1.35;;
66212;SDS011;53015;50.046;8.238;2023-08-17T04:02:35;2.13;;;1.20;;
66212;SDS011;53015;50.046;8.238;2023-08-17T04:05:00;2.45;;;1.48;;
66212;SDS011;53015;50.046;8.238;2023-08-17T04:07:26;6.63;;;1.58;;
66212;SDS011;53015;50.046;8.238;2023-08-17T04:09:51;2.65;;;1.00;;
66212;SDS011;53015;50.046;8.238;2023-08-17T04:12:17;1.20;;;1.10;;
66212;SDS011;53015;50.046;8.238;2023-08-17T04:14:44;2.78;;;1.08;;
66212;SDS011;53015;50.046;8.238;2023-08-17T04:17:09;2.58;;;1.05;;
66212;SDS011;53015;50.046;8.238;2023-08-17T04:19:35;3.72;;;1.20;;
66212;SDS011;53015;50.046;8.238;2023-08-17T04:22:00;4.78;;;1.35;;
66212;SDS011;53015;50.046;8.238;2023-08-17T04:24:26;3.00;;;1.13;;
66212;SDS011;53015;50.046;8.238;2023-08-17T04:26:51;3.33;;;1.48;;
66212;SDS011;53015;50.046;8.238;2023-08-17T04:29:17;6.85;;;1.20;;
66212;SDS011;53015;50.046;8.238;2023-08-17T04:31:44;3.17;;;1.20;;
66212;SDS011;53015;50.046;8.238;2023-08-17T04:34:10;1.52;;;1.23;;
66212;SDS011;53015;50.046;8.238;2023-08-17T04:36:35;4.85;;;1.40;;
66212;SDS011;53015;50.046;8.238;2023-08-17T04:39:01;2.08;;;1.20;;
66212;SDS011;53015;50.046;8.238;2023-08-17T04:41:26;2.90;;;1.00;;
66212;SDS011;53015;50.046;8.238;2023-08-17T04:43:52;2.08;;;1.10;;
66212;SDS011;53015;50.046;8.238;2023-08-17T04:46:17;6.28;;;1.15;;
66212;SDS011;53015;50.046;8.238;2023-08-17T04:48:44;2.00;;;1.30;;
66212;SDS011;53015;50.046;8.238;2023-08-17T04:51:10;4.75;;;0.93;;
66212;SDS011;53015;50.046;8.238;2023-08-17T04:53:35;2.33;;;1.10;;
66212;SDS011;53015;50.046;8.238;2023-08-17T04:56:02;2.45;;;1.05;;
66212;SDS011;53015;50.046;8.238;2023-08-17T04:58:27;2.08;;;1.02;;
66212;SDS011;53015;50.046;8.238;2023-08-17T05:00:53;3.00;;;1.00;;
66212;SDS011;53015;50.046;8.238;2023-08-17T05:03:18;2.13;;;1.10;;
66212;SDS011;53015;50.046;8.238;2023-08-17T05:05:45;6.47;;;1.15;;
66212;SDS011;53015;50.046;8.238;2023-08-17T05:08:11;6.07;;;1.10;;
66212;SDS011;53015;50.046;8.238;2023-08-17T05:10:37;4.97;;;1.25;;
66212;SDS011;53015;50.046;8.238;2023-08-17T05:13:02;1.42;;;1.30;;
66212;SDS011;53015;50.046;8.238;2023-08-17T05:15:28;0.90;;;0.88;;
66212;SDS011;53015;50.046;8.238;2023-08-17T05:17:55;3.33;;;1.10;;
66212;SDS011;53015;50.046;8.238;2023-08-17T05:20:21;3.58;;;1.10;;
66212;SDS011;53015;50.046;8.238;2023-08-17T05:22:48;2.08;;;1.10;;
66212;SDS011;53015;50.046;8.238;2023-08-17T05:25:13;4.03;;;1.20;;
66212;SDS011;53015;50.046;8.238;2023-08-17T05:27:39;1.35;;;1.17;;
66212;SDS011;53015;50.046;8.238;2023-08-17T05:30:05;3.60;;;2.20;;
66212;SDS011;53015;50.046;8.238;2023-08-17T05:32:32;4.82;;;1.70;;
66212;SDS011;53015;50.046;8.238;2023-08-17T05:34:57;2.65;;;1.58;;
66212;SDS011;53015;50.046;8.238;2023-08-17T05:37:23;4.13;;;1.80;;
66212;SDS011;53015;50.046;8.238;2023-08-17T05:39:50;2.08;;;1.33;;
66212;SDS011;53015;50.046;8.238;2023-08-17T05:42:15;1.60;;;1.23;;
66212;SDS011;53015;50.046;8.238;2023-08-17T05:44:41;2.38;;;1.30;;
66212;SDS011;53015;50.046;8.238;2023-08-17T05:47:06;1.23;;;1.10;;
66212;SDS011;53015;50.046;8.238;2023-08-17T05:49:32;3.35;;;1.40;;
66212;SDS011;53015;50.046;8.238;2023-08-17T05:51:57;3.45;;;1.10;;
66212;SDS011;53015;50.046;8.238;2023-08-17T05:54:23;3.28;;;1.13;;
66212;SDS011;53015;50.046;8.238;2023-08-17T05:56:49;4.20;;;1.15;;
66212;SDS011;53015;50.046;8.238;2023-08-17T05:59:15;2.45;;;0.90;;
66212;SDS011;53015;50.046;8.238;2023-08-17T06:01:40;5.15;;;1.17;;
66212;SDS011;53015;50.046;8.238;2023-08-17T06:04:06;1.50;;;1.00;;
66212;SDS011;53015;50.046;8.238;2023-08-17T06:06:32;3.70;;;0.85;;
66212;SDS011;53015;50.046;8.238;2023-08-17T06:08:57;1.05;;;0.90;;
66212;SDS011;53015;50.046;8.238;2023-08-17T06:11:23;1.98;;;0.82;;
66212;SDS011;53015;50.046;8.238;2023-08-17T06:13:50;2.80;;;1.00;;
66212;SDS011;53015;50.046;8.238;2023-08-17T06:16:15;1.60;;;1.02;;
66212;SDS011;53015;50.046;8.238;2023-08-17T06:18:41;6.93;;;1.27;;
66212;SDS011;53015;50.046;8.238;2023-08-17T06:21:07;2.20;;;1.00;;
66212;SDS011;53015;50.046;8.238;2023-08-17T06:23:32;4.95;;;1.52;;
66212;SDS011;53015;50.046;8.238;2023-08-17T06:25:58;0.60;;;0.60;;
66212;SDS011;53015;50.046;8.238;2023-08-17T06:28:24;1.50;;;0.80;;
66212;SDS011;53015;50.046;8.238;2023-08-17T06:30:52;0.90;;;0.70;;
66212;SDS011;53015;50.046;8.238;2023-08-17T06:33:18;2.83;;;0.80;;
66212;SDS011;53015;50.046;8.238;2023-08-17T06:35:44;0.85;;;0.80;;
66212;SDS011;53015;50.046;8.238;2023-08-17T06:38:10;3.90;;;0.98;;
66212;SDS011;53015;50.046;8.238;2023-08-17T06:40:35;1.45;;;0.88;;
66212;SDS011;53015;50.046;8.238;2023-08-17T06:43:01;3.53;;;1.38;;
66212;SDS011;53015;50.046;8.238;2023-08-17T06:45:26;2.80;;;1.00;;
66212;SDS011;53015;50.046;8.238;2023-08-17T06:47:53;4.60;;;1.25;;
66212;SDS011;53015;50.046;8.238;2023-08-17T06:50:18;2.20;;;0.80;;
66212;SDS011;53015;50.046;8.238;2023-08-17T06:52:44;1.95;;;1.00;;
66212;SDS011;53015;50.046;8.238;2023-08-17T06:55:09;2.45;;;1.02;;
66212;SDS011;53015;50.046;8.238;2023-08-17T06:57:35;2.55;;;1.35;;
66212;SDS011;53015;50.046;8.238;2023-08-17T07:00:01;1.67;;;0.90;;
66212;SDS011;53015;50.046;8.238;2023-08-17T07:02:26;3.42;;;1.08;;
66212;SDS011;53015;50.046;8.238;2023-08-17T07:04:53;2.00;;;0.90;;
66212;SDS011;53015;50.046;8.238;2023-08-17T07:07:19;1.30;;;1.17;;
66212;SDS011;53015;50.046;8.238;2023-08-17T07:09:44;2.42;;;1.50;;
66212;SDS011;53015;50.046;8.238;2023-08-17T07:12:10;4.32;;;1.10;;
66212;SDS011;53015;50.046;8.238;2023-08-17T07:14:35;5.45;;;1.60;;
66212;SDS011;53015;50.046;8.238;2023-08-17T07:17:01;2.75;;;1.38;;
66212;SDS011;53015;50.046;8.238;2023-08-17T07:19:26;1.52;;;1.20;;
66212;SDS011;53015;50.046;8.238;2023-08-17T07:21:53;3.40;;;1.00;;
66212;SDS011;53015;50.046;8.238;2023-08-17T07:24:19;2.33;;;1.00;;
66212;SDS011;53015;50.046;8.238;2023-08-17T07:26:44;3.03;;;1.00;;
66212;SDS011;53015;50.046;8.238;2023-08-17T07:29:10;2.33;;;0.90;;
66212;SDS011;53015;50.046;8.238;2023-08-17T07:31:36;1.45;;;1.05;;
66212;SDS011;53015;50.046;8.238;2023-08-17T07:34:01;2.30;;;1.00;;
66212;SDS011;53015;50.046;8.238;2023-08-17T07:36:27;2.70;;;1.00;;
66212;SDS011;53015;50.046;8.238;2023-08-17T07:38:54;1.35;;;0.90;;
66212;SDS011;53015;50.046;8.238;2023-08-17T07:41:19;1.85;;;0.90;;
66212;SDS011;53015;50.046;8.238;2023-08-17T07:43:45;1.35;;;0.90;;
66212;SDS011;53015;50.046;8.238;2023-08-17T07:46:11;1.83;;;1.02;;
66212;SDS011;53015;50.046;8.238;2023-08-17T07:48:37;2.20;;;1.20;;
66212;SDS011;53015;50.046;8.238;2023-08-17T07:51:02;5.65;;;1.75;;
66212;SDS011;53015;50.046;8.238;2023-08-17T07:53:28;3.33;;;1.35;;
66212;SDS011;53015;50.046;8.238;2023-08-17T07:55:55;2.35;;;1.33;;
66212;SDS011;53015;50.046;8.238;2023-08-17T07:58:20;2.63;;;1.20;;
66212;SDS011;53015;50.046;8.238;2023-08-17T08:00:46;3.80;;;1.40;;
66212;SDS011;53015;50.046;8.238;2023-08-17T08:03:11;5.18;;;1.10;;
66212;SDS011;53015;50.046;8.238;2023-08-17T08:05:37;1.27;;;1.08;;
66212;SDS011;53015;50.046;8.238;2023-08-17T08:08:02;1.83;;;1.02;;
66212;SDS011;53015;50.046;8.238;2023-08-17T08:10:28;2.40;;;1.20;;
66212;SDS011;53015;50.046;8.238;2023-08-17T08:12:55;3.08;;;1.50;;
66212;SDS011;53015;50.046;8.238;2023-08-17T08:15:21;2.33;;;1.30;;
66212;SDS011;53015;50.046;8.238;2023-08-17T08:17:46;2.35;;;1.20;;
66212;SDS011;53015;50.046;8.238;2023-08-17T08:20:12;3.65;;;1.10;;
66212;SDS011;53015;50.046;8.238;2023-08-17T08:22:37;3.50;;;1.10;;
66212;SDS011;53015;50.046;8.238;2023-08-17T08:25:03;2.72;;;0.90;;
66212;SDS011;53015;50.046;8.238;2023-08-17T08:27:29;3.65;;;3.15;;
66212;SDS011;53015;50.046;8.238;2023-08-17T08:29:56;2.30;;;1.30;;
66212;SDS011;53015;50.046;8.238;2023-08-17T08:32:21;3.65;;;1.02;;
66212;SDS011;53015;50.046;8.238;2023-08-17T08:34:47;2.95;;;2.47;;
66212;SDS011;53015;50.046;8.238;2023-08-17T08:37:12;2.28;;;1.20;;
66212;SDS011;53015;50.046;8.238;2023-08-17T08:39:47;2.78;;;2.17;;
66212;SDS011;53015;50.046;8.238;2023-08-17T08:42:13;2.75;;;1.58;;
66212;SDS011;53015;50.046;8.238;2023-08-17T08:44:39;1.92;;;1.23;;
66212;SDS011;53015;50.046;8.238;2023-08-17T08:47:06;1.23;;;1.10;;
66212;SDS011;53015;50.046;8.238;2023-08-17T08:49:32;1.52;;;1.42;;
66212;SDS011;53015;50.046;8.238;2023-08-17T08:52:03;1.20;;;1.10;;
66212;SDS011;53015;50.046;8.238;2023-08-17T08:54:32;3.30;;;1.00;;
66212;SDS011;53015;50.046;8.238;2023-08-17T08:57:01;3.28;;;1.10;;
66212;SDS011;53015;50.046;8.238;2023-08-17T08:59:29;1.35;;;0.93;;
66212;SDS011;53015;50.046;8.238;2023-08-17T09:01:56;2.85;;;1.15;;
66212;SDS011;53015;50.046;8.238;2023-08-17T09:04:24;3.53;;;1.00;;
66212;SDS011;53015;50.046;8.238;2023-08-17T09:06:50;1.95;;;1.00;;
66212;SDS011;53015;50.046;8.238;2023-08-17T09:09:16;3.35;;;1.13;;
66212;SDS011;53015;50.046;8.238;2023-08-17T09:11:43;4.50;;;1.10;;
66212;SDS011;53015;50.046;8.238;2023-08-17T09:14:09;3.22;;;1.38;;
66212;SDS011;53015;50.046;8.238;2023-08-17T09:16:34;2.35;;;1.25;;
66212;SDS011;53015;50.046;8.238;2023-08-17T09:19:00;1.95;;;1.30;;
66212;SDS011;53015;50.046;8.238;2023-08-17T09:21:30;1.90;;;1.25;;
66212;SDS011;53015;50.046;8.238;2023-08-17T09:23:57;3.42;;;0.90;;
66212;SDS011;53015;50.046;8.238;2023-08-17T09:26:23;4.25;;;0.95;;
66212;SDS011;53015;50.046;8.238;2023-08-17T09:28:48;5.97;;;1.27;;
66212;SDS011;53015;50.046;8.238;2023-08-17T09:31:14;1.55;;;1.08;;
66212;SDS011;53015;50.046;8.238;2023-08-17T09:33:40;3.55;;;1.20;;
66212;SDS011;53015;50.046;8.238;2023-08-17T09:36:05;3.75;;;1.30;;
66212;SDS011;53015;50.046;8.238;2023-08-17T09:38:32;3.38;;;1.10;;
66212;SDS011;53015;50.046;8.238;2023-08-17T09:40:57;2.05;;;1.17;;
66212;SDS011;53015;50.046;8.238;2023-08-17T09:43:23;4.95;;;1.58;;
66212;SDS011;53015;50.046;8.238;2023-08-17T09:45:50;2.47;;;1.40;;
66212;SDS011;53015;50.046;8.238;2023-08-17T09:48:16;2.58;;;1.50;;
66212;SDS011;53015;50.046;8.238;2023-08-17T09:50:42;2.83;;;1.50;;
66212;SDS011;53015;50.046;8.238;2023-08-17T09:53:10;2.83;;;1.50;;
66212;SDS011;53015;50.046;8.238;2023-08-17T09:55:38;4.65;;;1.40;;
66212;SDS011;53015;50.046;8.238;2023-08-17T09:58:05;2.00;;;1.60;;
66212;SDS011;53015;50.046;8.238;2023-08-17T10:00:31;4.30;;;1.20;;
66212;SDS011;53015;50.046;8.238;2023-08-17T10:02:58;1.33;;;1.02;;
66212;SDS011;53015;50.046;8.238;2023-08-17T10:05:28;2.42;;;1.20;;
66212;SDS011;53015;50.046;8.238;2023-08-17T10:07:56;1.20;;;1.10;;
66212;SDS011;53015;50.046;8.238;2023-08-17T10:10:25;1.60;;;1.08;;
66212;SDS011;53015;50.046;8.238;2023-08-17T10:12:59;1.20;;;1.10;;
66212;SDS011;53015;50.046;8.238;2023-08-17T10:15:32;2.25;;;1.10;;
66212;SDS011;53015;50.046;8.238;2023-08-17T10:18:00;1.48;;;1.00;;
66212;SDS011;53015;50.046;8.238;2023-08-17T10:20:32;3.60;;;1.00;;
66212;SDS011;53015;50.046;8.238;2023-08-17T10:23:01;2.88;;;1.05;;
66212;SDS011;53015;50.046;8.238;2023-08-17T10:25:34;2.80;;;1.23;;
66212;SDS011;53015;50.046;8.238;2023-08-17T10:28:02;2.15;;;1.00;;
66212;SDS011;53015;50.046;8.238;2023-08-17T10:30:29;4.07;;;1.60;;
66212;SDS011;53015;50.046;8.238;2023-08-17T10:32:55;1.27;;;1.02;;
66212;SDS011;53015;50.046;8.238;2023-08-17T10:35:21;1.77;;;1.00;;
66212;SDS011;53015;50.046;8.238;2023-08-17T10:37:47;1.77;;;1.00;;
66212;SDS011;53015;50.046;8.238;2023-08-17T10:40:13;3.50;;;0.93;;
66212;SDS011;53015;50.046;8.238;2023-08-17T10:42:40;1.45;;;1.02;;
66212;SDS011;53015;50.046;8.238;2023-08-17T10:51:03;2.58;;;1.00;;
66212;SDS011;53015;50.046;8.238;2023-08-17T10:53:36;2.20;;;1.50;;
66212;SDS011;53015;50.046;8.238;2023-08-17T10:56:02;2.42;;;0.90;;
66212;SDS011;53015;50.046;8.238;2023-08-17T10:58:32;1.30;;;1.20;;
66212;SDS011;53015;50.046;8.238;2023-08-17T11:00:59;1.35;;;1.00;;
66212;SDS011;53015;50.046;8.238;2023-08-17T11:03:24;1.58;;;0.95;;
66212;SDS011;53015;50.046;8.238;2023-08-17T11:05:50;3.35;;;1.10;;
66212;SDS011;53015;50.046;8.238;2023-08-17T11:08:20;1.02;;;1.00;;
66212;SDS011;53015;50.046;8.238;2023-08-17T11:10:48;2.40;;;1.03;;
66212;SDS011;53015;50.046;8.238;2023-08-17T11:13:22;1.63;;;1.30;;
66212;SDS011;53015;50.046;8.238;2023-08-17T11:15:48;1.83;;;1.27;;
66212;SDS011;53015;50.046;8.238;2023-08-17T11:18:15;2.97;;;1.10;;
66212;SDS011;53015;50.046;8.238;2023-08-17T11:20:41;3.25;;;1.10;;
66212;SDS011;53015;50.046;8.238;2023-08-17T11:23:08;1.30;;;1.20;;
66212;SDS011;53015;50.046;8.238;2023-08-17T11:25:35;2.47;;;1.10;;
66212;SDS011;53015;50.046;8.238;2023-08-17T11:28:02;3.40;;;1.20;;
66212;SDS011;53015;50.046;8.238;2023-08-17T11:30:29;2.25;;;1.20;;
66212;SDS011;53015;50.046;8.238;2023-08-17T11:32:54;1.63;;;1.10;;
66212;SDS011;53015;50.046;8.238;2023-08-17T11:35:23;3.00;;;1.23;;
66212;SDS011;53015;50.046;8.238;2023-08-17T11:37:48;1.88;;;1.00;;
66212;SDS011;53015;50.046;8.238;2023-08-17T11:40:14;3.35;;;1.20;;
66212;SDS011;53015;50.046;8.238;2023-08-17T11:42:40;1.40;;;1.08;;
66212;SDS011;53015;50.046;8.238;2023-08-17T11:45:07;1.00;;;1.00;;
66212;SDS011;53015;50.046;8.238;2023-08-17T11:47:32;1.65;;;1.10;;
66212;SDS011;53015;50.046;8.238;2023-08-17T11:50:01;1.40;;;1.30;;
66212;SDS011;53015;50.046;8.238;2023-08-17T11:52:28;4.72;;;1.30;;
66212;SDS011;53015;50.046;8.238;2023-08-17T11:54:54;4.82;;;2.08;;
66212;SDS011;53015;50.046;8.238;2023-08-17T11:57:21;2.92;;;1.23;;
66212;SDS011;53015;50.046;8.238;2023-08-17T11:59:46;2.72;;;1.10;;
66212;SDS011;53015;50.046;8.238;2023-08-17T12:02:12;2.53;;;1.27;;
66212;SDS011;53015;50.046;8.238;2023-08-17T12:04:37;3.55;;;1.10;;
66212;SDS011;53015;50.046;8.238;2023-08-17T12:07:03;2.15;;;1.00;;
66212;SDS011;53015;50.046;8.238;2023-08-17T12:09:32;1.08;;;1.02;;
66212;SDS011;53015;50.046;8.238;2023-08-17T12:11:58;1.40;;;1.10;;
66212;SDS011;53015;50.046;8.238;2023-08-17T12:14:25;2.90;;;1.00;;
66212;SDS011;53015;50.046;8.238;2023-08-17T12:16:51;3.40;;;1.90;;
66212;SDS011;53015;50.046;8.238;2023-08-17T12:19:18;4.45;;;1.30;;
66212;SDS011;53015;50.046;8.238;2023-08-17T12:21:45;5.05;;;1.10;;
66212;SDS011;53015;50.046;8.238;2023-08-17T12:24:10;4.20;;;1.23;;
66212;SDS011;53015;50.046;8.238;2023-08-17T12:26:40;1.20;;;1.00;;
66212;SDS011;53015;50.046;8.238;2023-08-17T12:29:06;1.63;;;1.10;;
66212;SDS011;53015;50.046;8.238;2023-08-17T12:31:32;3.00;;;1.20;;
66212;SDS011;53015;50.046;8.238;2023-08-17T12:33:58;3.45;;;1.27;;
66212;SDS011;53015;50.046;8.238;2023-08-17T12:36:24;2.00;;;1.50;;
66212;SDS011;53015;50.046;8.238;2023-08-17T12:38:50;5.95;;;1.40;;
66212;SDS011;53015;50.046;8.238;2023-08-17T12:41:15;2.25;;;1.10;;
66212;SDS011;53015;50.046;8.238;2023-08-17T12:43:42;2.38;;;1.30;;
66212;SDS011;53015;50.046;8.238;2023-08-17T12:46:08;1.20;;;1.00;;
66212;SDS011;53015;50.046;8.238;2023-08-17T12:48:34;2.67;;;1.23;;
66212;SDS011;53015;50.046;8.238;2023-08-17T12:50:59;2.00;;;1.10;;
66212;SDS011;53015;50.046;8.238;2023-08-17T12:53:25;3.33;;;1.33;;
66212;SDS011;53015;50.046;8.238;2023-08-17T12:55:50;4.70;;;1.30;;
66212;SDS011;53015;50.046;8.238;2023-08-17T12:58:16;2.13;;;1.10;;
66212;SDS011;53015;50.046;8.238;2023-08-17T13:00:43;2.95;;;1.25;;
66212;SDS011;53015;50.046;8.238;2023-08-17T13:03:08;3.60;;;1.48;;
66212;SDS011;53015;50.046;8.238;2023-08-17T13:05:34;3.05;;;1.48;;
66212;SDS011;53015;50.046;8.238;2023-08-17T13:07:59;2.42;;;1.30;;
66212;SDS011;53015;50.046;8.238;2023-08-17T13:10:25;1.10;;;0.90;;
66212;SDS011;53015;50.046;8.238;2023-08-17T13:12:50;3.13;;;1.40;;
66212;SDS011;53015;50.046;8.238;2023-08-17T13:15:16;2.10;;;1.10;;
66212;SDS011;53015;50.046;8.238;2023-08-17T13:17:42;1.55;;;1.27;;
66212;SDS011;53015;50.046;8.238;2023-08-17T13:20:08;2.72;;;1.20;;
66212;SDS011;53015;50.046;8.238;2023-08-17T13:22:35;4.30;;;1.30;;
66212;SDS011;53015;50.046;8.238;2023-08-17T13:25:00;2.35;;;1.27;;
66212;SDS011;53015;50.046;8.238;2023-08-17T13:27:27;1.30;;;1.20;;
66212;SDS011;53015;50.046;8.238;2023-08-17T13:29:52;1.33;;;1.23;;
66212;SDS011;53015;50.046;8.238;2023-08-17T13:32:18;5.13;;;1.33;;
66212;SDS011;53015;50.046;8.238;2023-08-17T13:34:45;1.63;;;1.20;;
66212;SDS011;53015;50.046;8.238;2023-08-17T13:37:10;3.15;;;1.30;;
66212;SDS011;53015;50.046;8.238;2023-08-17T13:39:36;1.40;;;1.30;;
66212;SDS011;53015;50.046;8.238;2023-08-17T13:42:01;2.50;;;1.33;;
66212;SDS011;53015;50.046;8.238;2023-08-17T13:44:27;5.97;;;1.30;;
66212;SDS011;53015;50.046;8.238;2023-08-17T13:46:52;3.83;;;1.83;;
66212;SDS011;53015;50.046;8.238;2023-08-17T13:49:18;4.72;;;1.30;;
66212;SDS011;53015;50.046;8.238;2023-08-17T13:51:45;2.80;;;1.23;;
66212;SDS011;53015;50.046;8.238;2023-08-17T13:54:10;2.38;;;1.30;;
66212;SDS011;53015;50.046;8.238;2023-08-17T13:56:36;1.77;;;1.15;;
66212;SDS011;53015;50.046;8.238;2023-08-17T13:59:01;4.20;;;1.20;;
66212;SDS011;53015;50.046;8.238;2023-08-17T14:01:27;2.35;;;1.27;;
66212;SDS011;53015;50.046;8.238;2023-08-17T14:03:52;4.47;;;1.10;;
66212;SDS011;53015;50.046;8.238;2023-08-17T14:06:18;1.83;;;1.60;;
66212;SDS011;53015;50.046;8.238;2023-08-17T14:08:44;3.80;;;1.35;;
66212;SDS011;53015;50.046;8.238;2023-08-17T14:11:10;1.83;;;1.20;;
66212;SDS011;53015;50.046;8.238;2023-08-17T14:13:35;2.53;;;1.17;;
66212;SDS011;53015;50.046;8.238;2023-08-17T14:16:01;1.45;;;1.15;;
66212;SDS011;53015;50.046;8.238;2023-08-17T14:18:27;2.47;;;1.23;;
66212;SDS011;53015;50.046;8.238;2023-08-17T14:20:52;3.30;;;1.30;;
66212;SDS011;53015;50.046;8.238;2023-08-17T14:23:18;5.30;;;4.80;;
66212;SDS011;53015;50.046;8.238;2023-08-17T14:25:45;3.08;;;1.30;;
66212;SDS011;53015;50.046;8.238;2023-08-17T14:28:10;7.28;;;1.23;;
66212;SDS011;53015;50.046;8.238;2023-08-17T14:30:36;4.28;;;1.50;;
66212;SDS011;53015;50.046;8.238;2023-08-17T14:33:01;3.20;;;1.13;;
66212;SDS011;53015;50.046;8.238;2023-08-17T14:35:27;1.92;;;1.20;;
66212;SDS011;53015;50.046;8.238;2023-08-17T14:37:53;6.22;;;1.95;;
66212;SDS011;53015;50.046;8.238;2023-08-17T14:40:19;1.40;;;1.25;;
66212;SDS011;53015;50.046;8.238;2023-08-17T14:42:45;1.92;;;1.33;;